createdAt,value
2018-04-10T00:02:16.393Z,90.60
2018-04-10T00:04:43.858Z,90.50
2018-04-10T00:07:11.344Z,90.60
2018-04-10T00:09:38.820Z,90.70
2018-04-10T00:12:06.283Z,90.60
2018-04-10T00:14:33.784Z,90.70
2018-04-10T00:17:02.111Z,90.70
2018-04-10T00:19:29.577Z,90.60
2018-04-10T00:21:57.088Z,90.60
2018-04-10T00:24:24.660Z,90.60
2018-04-10T00:26:52.144Z,90.50
2018-04-10T00:29:19.659Z,90.50
2018-04-10T00:31:47.873Z,90.60
2018-04-10T00:34:15.454Z,90.60
2018-04-10T00:36:43.873Z,90.80
2018-04-10T00:39:11.384Z,90.60
2018-04-10T00:41:38.835Z,90.60
2018-04-10T00:44:07.076Z,91.00
2018-04-10T00:46:34.550Z,90.90
2018-04-10T00:49:02.021Z,91.00
2018-04-10T00:51:29.483Z,91.00
2018-04-10T00:53:56.944Z,91.00
2018-04-10T00:56:24.428Z,91.10
2018-04-10T00:58:51.963Z,91.10
2018-04-10T01:01:19.469Z,90.90
2018-04-10T01:03:46.949Z,91.10
2018-04-10T01:06:14.451Z,91.10
2018-04-10T01:08:41.932Z,91.00
2018-04-10T01:11:10.168Z,91.10
2018-04-10T01:13:37.620Z,91.40
2018-04-10T01:16:05.088Z,91.10
2018-04-10T01:18:32.539Z,91.10
2018-04-10T01:21:00.017Z,91.20
2018-04-10T01:23:27.508Z,91.50
2018-04-10T01:25:55.005Z,91.30
2018-04-10T01:28:22.479Z,91.50
2018-04-10T01:30:50.028Z,91.80
2018-04-10T01:33:18.384Z,91.60
2018-04-10T01:35:45.868Z,91.50
2018-04-10T01:38:13.332Z,91.60
2018-04-10T01:40:40.827Z,91.80
2018-04-10T01:43:08.403Z,91.90
2018-04-10T01:45:35.932Z,91.90
2018-04-10T01:48:03.516Z,91.70
2018-04-10T01:50:31.080Z,92.00
2018-04-10T01:52:59.321Z,92.10
2018-04-10T01:55:26.821Z,92.10
2018-04-10T01:57:55.073Z,92.40
2018-04-10T02:00:22.596Z,92.40
2018-04-10T02:02:50.113Z,92.30
2018-04-10T02:05:17.571Z,92.40
2018-04-10T02:07:45.068Z,92.60
2018-04-10T02:10:13.120Z,92.70
2018-04-10T02:12:40.663Z,92.70
2018-04-10T02:15:08.235Z,93.10
2018-04-10T02:17:36.439Z,93.00
2018-04-10T02:20:03.932Z,93.00
2018-04-10T02:22:31.391Z,93.20
2018-04-10T02:24:58.860Z,93.30
2018-04-10T02:27:26.386Z,93.40
2018-04-10T02:29:53.904Z,93.30
2018-04-10T02:32:22.157Z,93.20
2018-04-10T02:34:49.909Z,93.30
2018-04-10T02:37:17.452Z,93.20
2018-04-10T02:39:44.919Z,93.50
2018-04-10T02:42:12.781Z,93.30
2018-04-10T02:44:40.275Z,93.10
2018-04-10T02:47:07.802Z,93.20
2018-04-10T02:49:36.128Z,93.40
2018-04-10T02:52:03.583Z,93.40
2018-04-10T02:54:32.961Z,93.40
2018-04-10T02:57:01.196Z,93.40
2018-04-10T02:59:29.646Z,93.40
2018-04-10T03:01:57.880Z,93.60
2018-04-10T03:04:27.249Z,93.60
2018-04-10T03:06:55.476Z,93.60
2018-04-10T03:09:24.149Z,93.60
2018-04-10T03:11:51.656Z,93.60
2018-04-10T03:14:19.120Z,93.60
2018-04-10T03:16:46.696Z,93.70
2018-04-10T03:19:14.230Z,93.70
2018-04-10T03:21:42.552Z,93.80
2018-04-10T03:24:10.126Z,93.80
2018-04-10T03:26:37.619Z,93.70
2018-04-10T03:29:05.089Z,93.80
2018-04-10T03:31:32.560Z,93.90
2018-04-10T03:34:00.469Z,93.90
2018-04-10T03:36:28.987Z,93.80
2018-04-10T03:38:56.452Z,93.80
2018-04-10T03:41:23.896Z,93.70
2018-04-10T03:43:52.128Z,93.70
2018-04-10T03:46:19.616Z,93.70
2018-04-10T03:48:47.151Z,93.70
2018-04-10T03:51:14.601Z,93.60
2018-04-10T03:53:42.840Z,93.80
2018-04-10T03:56:10.298Z,93.80
2018-04-10T03:58:37.763Z,93.60
2018-04-10T04:01:08.025Z,93.70
2018-04-10T04:03:35.530Z,93.60
2018-04-10T04:06:03.760Z,93.70
2018-04-10T04:08:31.248Z,93.70
2018-04-10T04:10:59.225Z,93.70
2018-04-10T04:13:26.699Z,93.70
2018-04-10T04:15:54.176Z,93.70
2018-04-10T04:18:33.448Z,93.80
2018-04-10T04:21:12.799Z,93.80
2018-04-10T04:23:41.355Z,94.10
2018-04-10T04:26:08.818Z,94.10
2018-04-10T04:28:36.263Z,94.10
2018-04-10T04:31:03.732Z,94.30
2018-04-10T04:33:31.184Z,94.10
2018-04-10T04:35:59.486Z,94.30
2018-04-10T04:38:27.717Z,94.40
2018-04-10T04:40:55.201Z,94.40
2018-04-10T04:43:22.679Z,94.50
2018-04-10T04:45:51.016Z,94.50
2018-04-10T04:48:18.477Z,94.50
2018-04-10T04:50:45.941Z,94.70
2018-04-10T04:53:13.392Z,94.90
2018-04-10T04:55:42.052Z,94.80
2018-04-10T04:58:09.507Z,94.80
2018-04-10T05:00:36.991Z,94.80
2018-04-10T05:03:04.522Z,94.80
2018-04-10T05:05:32.744Z,94.80
2018-04-10T05:08:00.216Z,94.80
2018-04-10T05:10:27.683Z,94.80
2018-04-10T05:12:55.884Z,94.80
2018-04-10T05:15:23.378Z,94.70
2018-04-10T05:17:52.097Z,94.90
2018-04-10T05:20:20.323Z,94.80
2018-04-10T05:22:47.795Z,94.80
2018-04-10T05:25:15.397Z,94.80
2018-04-10T05:27:42.871Z,94.80
2018-04-10T05:30:10.324Z,94.90
2018-04-10T05:32:37.888Z,95.20
2018-04-10T05:35:05.352Z,94.80
2018-04-10T05:37:32.815Z,94.80
2018-04-10T05:40:00.309Z,94.80
2018-04-10T05:42:28.564Z,94.90
2018-04-10T05:44:56.030Z,94.90
2018-04-10T05:47:23.535Z,94.90
2018-04-10T05:49:51.157Z,94.70
2018-04-10T05:52:19.627Z,94.60
2018-04-10T05:54:48.048Z,94.60
2018-04-10T05:57:15.499Z,94.40
2018-04-10T05:59:43.840Z,94.40
2018-04-10T16:52:57.668Z,64.30
2018-04-10T16:55:25.135Z,64.20
2018-04-10T16:57:52.583Z,65.00
2018-04-10T17:00:20.055Z,64.90
2018-04-10T17:02:47.536Z,64.90
2018-04-10T17:05:14.988Z,65.10
2018-04-10T17:07:42.467Z,67.10
2018-04-10T17:10:09.912Z,67.60
2018-04-10T17:12:37.380Z,67.50
2018-04-10T17:15:04.844Z,68.50
2018-04-10T17:17:32.287Z,68.70
2018-04-10T17:19:59.735Z,68.30
2018-04-10T17:22:27.204Z,69.60
2018-04-10T17:24:54.664Z,71.20
2018-04-10T17:27:22.116Z,73.50
2018-04-10T17:29:49.584Z,72.00
2018-04-10T17:32:17.048Z,74.50
2018-04-10T17:34:44.504Z,73.60
2018-04-10T17:37:12.733Z,77.50
2018-04-10T17:39:40.171Z,77.50
2018-04-10T17:42:07.621Z,77.40
2018-04-10T17:44:35.861Z,80.40
2018-04-10T17:47:03.309Z,80.20
2018-04-10T17:49:30.764Z,80.90
2018-04-10T17:51:58.240Z,81.70
2018-04-10T17:54:25.805Z,81.50
2018-04-10T17:56:53.248Z,82.40
2018-04-10T17:59:21.515Z,81.80
2018-04-10T18:01:49.072Z,81.80
2018-04-10T18:04:16.531Z,82.80
2018-04-10T18:06:44.004Z,82.20
2018-04-10T18:09:11.468Z,82.10
2018-04-10T18:11:38.924Z,82.10
2018-04-10T18:14:06.392Z,82.20
2018-04-10T18:16:33.849Z,81.90
2018-04-10T18:19:01.312Z,82.30
2018-04-10T18:21:29.552Z,83.00
2018-04-10T18:23:57.022Z,83.00
2018-04-10T18:26:24.481Z,83.00
2018-04-10T18:28:51.947Z,83.70
2018-04-10T18:31:19.400Z,83.50
2018-04-10T18:33:46.901Z,84.20
2018-04-10T18:36:14.377Z,82.90
2018-04-10T18:38:41.950Z,82.70
2018-04-10T18:41:09.401Z,82.80
2018-04-10T18:43:36.868Z,83.60
2018-04-10T18:46:04.320Z,83.40
2018-04-10T18:48:31.768Z,83.50
2018-04-10T18:51:00.112Z,85.00
2018-04-10T18:53:27.560Z,85.00
2018-04-10T18:55:55.012Z,84.00
2018-04-10T18:58:22.526Z,85.20
2018-04-10T19:00:49.943Z,85.50
2018-04-10T19:03:17.392Z,86.10
2018-04-10T19:05:45.623Z,90.00
2018-04-10T19:08:13.076Z,89.10
2018-04-10T19:10:40.584Z,90.20
2018-04-10T19:13:08.156Z,92.00
2018-04-10T19:15:35.604Z,92.60
2018-04-10T19:18:03.088Z,92.60
2018-04-10T19:20:30.572Z,93.60
2018-04-10T19:22:58.030Z,94.10
2018-04-10T19:25:25.480Z,94.30
2018-04-10T19:27:52.980Z,95.50
2018-04-10T19:30:20.436Z,95.50
2018-04-10T19:32:47.889Z,97.00
2018-04-10T19:35:15.395Z,97.40
2018-04-10T19:37:42.877Z,98.30
2018-04-10T19:40:10.325Z,99.20
2018-04-10T19:42:37.800Z,99.40
2018-04-10T19:45:05.272Z,99.70
2018-04-10T19:47:32.723Z,99.90
2018-04-10T19:50:00.209Z,99.90
2018-04-10T19:52:27.666Z,99.90
2018-04-10T19:54:55.117Z,99.90
2018-04-10T19:57:22.597Z,99.90
2018-04-10T19:59:50.048Z,99.90
2018-04-10T20:02:17.500Z,99.90
2018-04-10T20:04:45.792Z,99.90
2018-04-10T20:07:13.204Z,99.90
2018-04-10T20:09:40.662Z,99.90
2018-04-10T20:12:08.140Z,99.90
2018-04-10T20:14:35.592Z,99.90
2018-04-10T20:17:03.048Z,99.90
2018-04-10T20:19:30.520Z,99.90
2018-04-10T20:21:57.977Z,99.90
2018-04-10T20:24:26.327Z,99.90
2018-04-10T20:26:53.802Z,99.90
2018-04-10T20:29:21.260Z,99.90
2018-04-10T20:31:48.725Z,99.90
2018-04-10T20:34:16.304Z,99.90
2018-04-10T20:36:43.765Z,99.90
2018-04-10T20:39:11.256Z,99.90
2018-04-10T20:41:38.695Z,99.90
2018-04-10T20:44:06.152Z,99.90
2018-04-10T20:46:33.606Z,99.90
2018-04-10T20:49:01.848Z,99.90
2018-04-10T20:51:29.315Z,99.90
2018-04-10T20:53:56.788Z,99.90
2018-04-10T20:56:24.351Z,99.90
2018-04-10T20:58:51.807Z,99.90
2018-04-10T21:01:19.392Z,99.90
2018-04-10T21:03:46.864Z,99.90
2018-04-10T21:06:14.336Z,99.90
2018-04-10T21:08:41.791Z,99.90
2018-04-10T21:11:09.272Z,99.90
2018-04-10T21:13:36.728Z,99.90
2018-04-10T21:16:04.188Z,99.90
2018-04-10T21:18:31.664Z,99.90
2018-04-10T21:20:59.124Z,99.90
2018-04-10T21:23:26.627Z,99.90
2018-04-10T21:25:54.204Z,99.90
2018-04-10T21:28:21.665Z,99.90
2018-04-10T21:30:49.112Z,99.90
2018-04-10T21:33:16.591Z,99.90
2018-04-10T21:35:44.044Z,99.90
2018-04-10T21:38:11.500Z,99.90
2018-04-10T21:40:38.977Z,99.90
2018-04-10T21:43:12.996Z,99.90
2018-04-10T21:45:40.524Z,99.90
2018-04-10T21:48:07.979Z,99.90
2018-04-10T21:50:35.448Z,99.90
2018-04-10T21:53:02.933Z,99.90
2018-04-10T21:55:30.413Z,99.90
2018-04-10T21:57:57.971Z,99.90
2018-04-10T22:00:25.451Z,99.90
2018-04-10T22:02:52.892Z,99.90
2018-04-10T22:05:20.352Z,99.90
2018-04-10T22:07:47.836Z,99.90
2018-04-10T22:10:15.291Z,99.90
2018-04-10T22:12:42.740Z,99.90
2018-04-10T22:15:10.232Z,99.90
2018-04-10T22:17:37.730Z,99.90
2018-04-10T22:20:05.199Z,99.90
2018-04-10T22:22:32.769Z,99.90
2018-04-10T22:25:00.236Z,99.90
2018-04-10T22:27:27.711Z,99.90
2018-04-10T22:29:55.245Z,99.90
2018-04-10T22:32:22.692Z,99.90
2018-04-10T22:34:50.889Z,99.90
2018-04-10T22:37:18.364Z,99.90
2018-04-10T22:39:45.845Z,99.90
2018-04-10T22:42:13.304Z,99.90
2018-04-10T22:44:40.784Z,99.90
2018-04-10T22:47:08.244Z,99.90
2018-04-10T22:49:35.698Z,99.90
2018-04-10T22:52:03.187Z,99.90
2018-04-10T22:54:30.644Z,99.90
2018-04-10T22:56:58.101Z,99.90
2018-04-10T22:59:25.577Z,99.90
2018-04-10T23:01:53.080Z,99.90
2018-04-10T23:04:20.540Z,99.90
2018-04-10T23:06:48.021Z,99.90
2018-04-10T23:09:15.500Z,99.90
2018-04-10T23:11:42.961Z,99.90
2018-04-10T23:14:10.436Z,99.90
2018-04-10T23:16:37.888Z,99.90
2018-04-10T23:19:05.344Z,99.90
2018-04-10T23:21:33.696Z,99.90
2018-04-10T23:24:01.159Z,99.90
2018-04-10T23:26:28.629Z,99.90
2018-04-10T23:28:56.109Z,99.90
2018-04-10T23:31:23.573Z,99.90
2018-04-10T23:33:51.029Z,99.90
2018-04-10T23:36:18.504Z,99.90
2018-04-10T23:38:45.961Z,99.90
2018-04-10T23:41:13.460Z,99.90
2018-04-10T23:43:40.928Z,99.90
2018-04-10T23:46:08.388Z,99.90
2018-04-10T23:48:35.856Z,99.90
2018-04-10T23:51:03.333Z,99.90
2018-04-10T23:53:30.804Z,99.90
2018-04-10T23:55:58.273Z,99.90
2018-04-10T23:58:25.757Z,99.90
